»·PEaware :: ACA550 CYVR-KLAX

ACA550 :: CYVR-KLAX

FLIGHT INFORMATION

Flight Status: Arrived
Operator:
Air Canada
More flights by this operator :: More flights under this callsign
Pilot: Konrad W. (32064)
Aircraft: AIRBUS A320
(A320)
More flights by this aircraft type
Origin: CYVR Vancouver Intl
Canada
Destination: KLAX Los Angeles Intl
United States
More flights between these airports :: More routes between these airports
Route: YVR1 YVR J5 FMG REBRG IRNMN2
File this flight plan on PilotEdge
Remarks:
Altitude:
(Current/Filed)
37,000ft
Speed:
(Current/Filed)
440kts
Departed: 08-Dec-20 06:06 PM
Arrived: 08-Dec-20 08:42 PM
Distance/Time
Traveled:
940nm/2:35
Distance/Time
To Go:
Arrived

Flight Plot

Page will automatically refresh every two minutes.

Flight plan parsing failed; only flown route is shown


Map Options




Map Legend


Flown Route
Filed Route
Departure Airport
Arrival Airport
Navaid (VOR, NDB)
Fix

Horizontal Profiles

Position Reports

Time Latitude Longitude Heading Altitude Ground
Speed
08-Dec-20 17:49 0.000408 0.013975 0 8ft 0kts
08-Dec-20 17:51 49.195342 -123.186192 100 22ft 0kts
08-Dec-20 17:52 49.195342 -123.186192 100 22ft 0kts
08-Dec-20 17:53 49.195342 -123.186192 100 22ft 0kts
08-Dec-20 17:54 49.195342 -123.186192 100 22ft 0kts
08-Dec-20 17:55 49.195342 -123.186192 100 22ft 0kts
08-Dec-20 17:56 49.195342 -123.186192 100 22ft 0kts
08-Dec-20 17:57 49.195342 -123.186192 100 22ft 0kts
08-Dec-20 17:58 49.195342 -123.186192 100 22ft 0kts
08-Dec-20 17:58 49.195342 -123.186192 100 22ft 0kts
08-Dec-20 18:00 49.195342 -123.186192 100 22ft 0kts
08-Dec-20 18:01 49.195351 -123.186275 100 22ft 2kts
08-Dec-20 18:01 49.195708 -123.186693 205 22ft 2kts
08-Dec-20 18:03 49.194068 -123.187516 214 22ft 15kts
08-Dec-20 18:03 49.192964 -123.195233 258 22ft 29kts
08-Dec-20 18:04 49.190800 -123.204372 189 24ft 0kts
08-Dec-20 18:05 49.189289 -123.200874 99 23ft 51kts
08-Dec-20 18:06 49.180366 -123.131437 103 1299ft 223kts
08-Dec-20 18:07 49.152947 -123.052791 169 3911ft 230kts
08-Dec-20 18:08 49.108375 -123.102306 237 6380ft 208kts
08-Dec-20 18:09 49.062049 -123.149103 172 8726ft 243kts
08-Dec-20 18:10 49.005121 -123.087263 147 11274ft 263kts
08-Dec-20 18:11 48.943868 -123.046928 183 13822ft 240kts
08-Dec-20 18:12 48.877094 -123.031910 182 16352ft 252kts
08-Dec-20 18:13 48.806214 -123.009810 174 18248ft 282kts
08-Dec-20 18:14 48.734275 -122.969541 174 20308ft 282kts
08-Dec-20 18:15 48.660342 -122.929143 175 22364ft 289kts
08-Dec-20 18:16 48.584235 -122.889360 176 23189ft 292kts
08-Dec-20 18:17 48.508693 -122.850433 176 23196ft 291kts
08-Dec-20 18:18 48.429431 -122.810668 175 24135ft 326kts
08-Dec-20 18:19 48.340810 -122.765542 173 25773ft 343kts
08-Dec-20 18:20 48.250542 -122.718894 174 27404ft 350kts
08-Dec-20 18:21 48.158301 -122.671717 174 29009ft 360kts
08-Dec-20 18:22 48.063009 -122.623239 174 30599ft 369kts
08-Dec-20 18:23 47.965227 -122.573868 174 32174ft 379kts
08-Dec-20 18:24 47.865372 -122.523789 173 33748ft 387kts
08-Dec-20 18:25 47.763995 -122.473114 173 35288ft 390kts
08-Dec-20 18:26 47.661955 -122.422252 172 36831ft 393kts
08-Dec-20 18:27 47.555632 -122.369831 172 37167ft 426kts
08-Dec-20 18:28 47.441985 -122.313344 172 37190ft 443kts
08-Dec-20 18:29 47.326308 -122.265661 174 37176ft 436kts
08-Dec-20 18:30 47.211081 -122.219942 174 37241ft 434kts
08-Dec-20 18:31 47.096434 -122.175138 173 37200ft 430kts
08-Dec-20 18:32 46.982617 -122.130572 173 37191ft 426kts
08-Dec-20 18:33 46.869294 -122.086315 173 37203ft 426kts
08-Dec-20 18:34 46.755700 -122.042048 172 37269ft 426kts
08-Dec-20 18:35 46.642104 -121.997891 172 37300ft 429kts
08-Dec-20 18:36 46.527824 -121.953712 172 37290ft 429kts
08-Dec-20 18:37 46.413417 -121.909558 172 37248ft 427kts
08-Dec-20 18:38 46.298876 -121.865810 172 37302ft 430kts
08-Dec-20 18:39 46.184708 -121.822387 172 37292ft 430kts
08-Dec-20 18:40 46.070148 -121.778866 172 37320ft 429kts
08-Dec-20 18:41 45.955862 -121.735724 171 37333ft 430kts
08-Dec-20 18:42 45.841486 -121.692711 171 37356ft 431kts
08-Dec-20 18:43 45.727102 -121.649837 171 37328ft 428kts
08-Dec-20 18:44 45.613041 -121.607153 171 37329ft 429kts
08-Dec-20 18:45 45.498016 -121.564278 171 37334ft 431kts
08-Dec-20 18:46 45.382874 -121.521713 170 37327ft 432kts
08-Dec-20 18:47 45.267169 -121.479196 171 37342ft 434kts
08-Dec-20 18:48 45.151225 -121.436739 170 37347ft 434kts
08-Dec-20 18:49 45.035198 -121.394404 170 37368ft 435kts
08-Dec-20 18:50 44.918394 -121.351908 170 37383ft 436kts
08-Dec-20 18:51 44.802057 -121.309754 169 37379ft 437kts
08-Dec-20 18:52 44.685248 -121.267575 169 37401ft 437kts
08-Dec-20 18:53 44.568321 -121.225515 169 37412ft 438kts
08-Dec-20 18:54 44.451072 -121.183521 169 37412ft 438kts
08-Dec-20 18:55 44.334381 -121.141871 169 37183ft 436kts
08-Dec-20 18:56 44.217310 -121.100261 169 37161ft 439kts
08-Dec-20 18:57 44.100598 -121.059061 169 37180ft 438kts
08-Dec-20 18:58 43.983450 -121.017920 168 37197ft 440kts
08-Dec-20 18:59 43.865881 -120.976740 168 37330ft 438kts
08-Dec-20 19:00 43.747942 -120.935609 168 37469ft 443kts
08-Dec-20 19:01 43.629900 -120.894539 168 37472ft 442kts
08-Dec-20 19:02 43.512005 -120.853703 168 37479ft 443kts
08-Dec-20 19:03 43.393688 -120.812875 168 37477ft 442kts
08-Dec-20 19:04 43.275112 -120.772120 167 37476ft 442kts
08-Dec-20 19:05 43.157047 -120.731723 167 37470ft 443kts
08-Dec-20 19:06 43.038231 -120.691207 167 37466ft 443kts
08-Dec-20 19:07 42.919941 -120.651043 167 37462ft 444kts
08-Dec-20 19:08 42.801232 -120.610890 167 37458ft 444kts
08-Dec-20 19:09 42.682487 -120.570894 166 37448ft 445kts
08-Dec-20 19:10 42.563114 -120.530775 166 37451ft 446kts
08-Dec-20 19:11 42.443391 -120.492547 167 37340ft 445kts
08-Dec-20 19:12 42.323501 -120.456522 167 37322ft 447kts
08-Dec-20 19:13 42.203097 -120.420584 167 37318ft 447kts
08-Dec-20 19:14 42.082801 -120.384811 167 37318ft 448kts
08-Dec-20 19:15 41.961704 -120.348923 167 37316ft 449kts
08-Dec-20 19:16 41.841258 -120.313392 166 37310ft 448kts
08-Dec-20 19:17 41.720079 -120.277753 166 37297ft 450kts
08-Dec-20 19:18 41.598878 -120.242229 166 37305ft 451kts
08-Dec-20 19:19 41.477593 -120.206802 166 37301ft 450kts
08-Dec-20 19:20 41.356294 -120.171468 165 37303ft 450kts
08-Dec-20 19:21 41.235224 -120.136300 165 37499ft 452kts
08-Dec-20 19:22 41.112943 -120.100962 165 37552ft 452kts
08-Dec-20 19:23 40.991229 -120.066017 165 37542ft 451kts
08-Dec-20 19:24 40.869938 -120.031190 164 37544ft 450kts
08-Dec-20 19:25 40.748252 -119.996578 164 37551ft 451kts
08-Dec-20 19:26 40.627167 -119.962313 164 37395ft 447kts
08-Dec-20 19:27 40.506002 -119.928015 163 37582ft 451kts
08-Dec-20 19:28 40.385101 -119.893930 163 37589ft 449kts
08-Dec-20 19:29 40.264262 -119.859973 163 37534ft 445kts
08-Dec-20 19:30 40.143409 -119.826033 162 37565ft 448kts
08-Dec-20 19:31 40.022906 -119.792360 162 37573ft 448kts
08-Dec-20 19:32 39.902484 -119.758700 162 37554ft 447kts
08-Dec-20 19:33 39.782075 -119.725451 162 37569ft 446kts
08-Dec-20 19:34 39.661795 -119.692277 161 37554ft 447kts
08-Dec-20 19:35 39.541586 -119.661529 167 37394ft 448kts
08-Dec-20 19:36 39.416725 -119.654968 172 37406ft 456kts
08-Dec-20 19:37 39.291914 -119.653327 172 37433ft 456kts
08-Dec-20 19:39 39.166239 -119.651892 172 37393ft 455kts
08-Dec-20 19:40 39.040592 -119.650349 172 37427ft 455kts
08-Dec-20 19:41 38.915219 -119.648850 172 37403ft 455kts
08-Dec-20 19:42 38.789807 -119.647220 172 37391ft 456kts
08-Dec-20 19:43 38.664385 -119.645553 172 37447ft 453kts
08-Dec-20 19:44 38.539574 -119.644081 173 37465ft 456kts
08-Dec-20 19:45 38.414304 -119.642492 173 37414ft 455kts
08-Dec-20 19:46 38.288757 -119.641229 173 37435ft 455kts
08-Dec-20 19:47 38.163225 -119.640061 173 37408ft 455kts
08-Dec-20 19:48 38.038228 -119.638711 173 37416ft 455kts
08-Dec-20 19:49 37.913106 -119.637121 172 37404ft 454kts
08-Dec-20 19:50 37.787442 -119.635534 172 37431ft 455kts
08-Dec-20 19:51 37.662596 -119.634042 172 37383ft 453kts
08-Dec-20 19:52 37.537538 -119.632535 172 37370ft 455kts
08-Dec-20 19:53 37.411847 -119.631073 172 37369ft 454kts
08-Dec-20 19:54 37.286648 -119.629627 172 37373ft 455kts
08-Dec-20 19:55 37.160857 -119.628177 172 37359ft 454kts
08-Dec-20 19:56 37.035999 -119.626804 172 37294ft 453kts
08-Dec-20 19:57 36.910930 -119.625345 172 37234ft 456kts
08-Dec-20 19:57 36.806189 -119.623931 172 37220ft 459kts
08-Dec-20 19:59 36.657502 -119.621939 173 37218ft 462kts
08-Dec-20 19:59 36.551477 -119.620691 173 37253ft 464kts
08-Dec-20 20:01 36.402793 -119.618867 174 37239ft 460kts
08-Dec-20 20:01 36.297113 -119.617717 174 37220ft 462kts
08-Dec-20 20:02 36.169954 -119.616501 174 37218ft 460kts
08-Dec-20 20:03 36.043375 -119.615269 174 37247ft 461kts
08-Dec-20 20:04 35.916607 -119.638149 191 37261ft 475kts
08-Dec-20 20:05 35.790929 -119.685245 193 37260ft 475kts
08-Dec-20 20:06 35.665362 -119.731389 189 36012ft 462kts
08-Dec-20 20:07 35.544273 -119.762980 186 34336ft 443kts
08-Dec-20 20:08 35.423577 -119.791744 186 32664ft 437kts
08-Dec-20 20:09 35.307342 -119.816428 172 30987ft 414kts
08-Dec-20 20:10 35.211392 -119.756984 139 29294ft 386kts
08-Dec-20 20:11 35.128712 -119.676595 138 27803ft 378kts
08-Dec-20 20:12 35.047212 -119.599164 139 26450ft 373kts
08-Dec-20 20:13 34.963525 -119.521096 139 26246ft 383kts
08-Dec-20 20:14 34.879331 -119.444199 140 25853ft 381kts
08-Dec-20 20:15 34.798339 -119.371822 139 24364ft 351kts
08-Dec-20 20:16 34.720763 -119.303001 140 22444ft 347kts
08-Dec-20 20:17 34.644007 -119.235921 141 20744ft 339kts
08-Dec-20 20:18 34.568965 -119.170974 140 19243ft 332kts
08-Dec-20 20:19 34.495986 -119.106767 140 17470ft 322kts
08-Dec-20 20:20 34.424603 -119.043967 140 15937ft 316kts
08-Dec-20 20:21 34.354209 -118.982786 140 14477ft 313kts
08-Dec-20 20:22 34.286145 -118.921693 140 12745ft 305kts
08-Dec-20 20:23 34.221911 -118.863015 139 12029ft 277kts
08-Dec-20 20:24 34.163374 -118.807748 137 12002ft 270kts
08-Dec-20 20:25 34.107380 -118.748176 135 10630ft 275kts
08-Dec-20 20:26 34.050803 -118.685862 130 9069ft 276kts
08-Dec-20 20:27 34.022288 -118.604569 97 8017ft 255kts
08-Dec-20 20:28 34.016387 -118.526322 94 7479ft 235kts
08-Dec-20 20:29 34.012929 -118.445859 84 6174ft 246kts
08-Dec-20 20:30 34.024482 -118.370329 77 6008ft 216kts
08-Dec-20 20:31 34.035263 -118.299322 78 5267ft 229kts
08-Dec-20 20:32 34.046064 -118.224728 78 4288ft 226kts
08-Dec-20 20:33 34.056370 -118.153855 80 3202ft 218kts
08-Dec-20 20:34 34.016123 -118.107237 166 2332ft 218kts
08-Dec-20 20:35 33.965603 -118.135009 240 2497ft 217kts
08-Dec-20 20:36 33.955840 -118.197838 268 2501ft 185kts
08-Dec-20 20:37 33.950217 -118.258780 264 2155ft 168kts
08-Dec-20 20:38 33.944720 -118.311928 263 1274ft 157kts
08-Dec-20 20:39 33.939448 -118.362854 262 459ft 151kts
08-Dec-20 20:40 33.935329 -118.403914 274 125ft 62kts
08-Dec-20 20:41 33.935963 -118.406640 280 125ft 0kts
08-Dec-20 20:42 33.936983 -118.409023 351 125ft 25kts
08-Dec-20 20:43 33.939047 -118.405549 83 125ft 28kts
08-Dec-20 20:44 33.940017 -118.401849 354 125ft 2kts
08-Dec-20 20:45 33.940018 -118.401849 354 125ft 0kts
08-Dec-20 20:46 33.940018 -118.401849 354 125ft 0kts
08-Dec-20 20:47 33.940018 -118.401849 354 125ft 0kts
08-Dec-20 20:48 33.940018 -118.401849 354 125ft 0kts
08-Dec-20 20:49 33.940018 -118.401849 354 125ft 0kts

Navigation Log

Ident Type
Flight plan parsing failed, navigation log unavailable